Time;durP1;ratioP1;P1;durP2;ratioP2;P2;SDS_P1;SDS_P2;PMS_P1;PMS_P2;Temp;Humidity;BMP_temperature;BMP_pressure;BME280_temperature;BME280_humidity;BME280_pressure;Samples;Min_cycle;Max_cycle;Signal;HPM_P1;HPM_P2
2023/04/17 00:01:49;;;;;;;12.73;9.67;;;11.10;99.90;;;;;;7390664;19;20138;-76
2023/04/17 00:04:15;;;;;;;12.90;9.17;;;11.10;99.90;;;;;;7392769;19;20198;-76
2023/04/17 00:06:44;;;;;;;12.60;9.43;;;11.00;99.90;;;;;;7396228;19;20192;-75
2023/04/17 00:09:13;;;;;;;14.23;9.50;;;11.10;99.90;;;;;;7393518;19;20153;-77
2023/04/17 00:11:39;;;;;;;13.93;9.97;;;11.00;99.90;;;;;;7394234;19;20158;-76
2023/04/17 00:14:05;;;;;;;13.27;9.83;;;11.00;99.90;;;;;;7390922;19;20155;-76
2023/04/17 00:16:31;;;;;;;13.00;9.50;;;11.00;99.90;;;;;;7396003;19;20248;-76
2023/04/17 00:18:56;;;;;;;13.00;8.70;;;11.00;99.90;;;;;;7393140;19;20142;-77
2023/04/17 00:21:22;;;;;;;15.20;9.50;;;10.90;99.90;;;;;;7393116;19;20200;-76
2023/04/17 00:23:48;;;;;;;12.83;9.97;;;11.00;99.90;;;;;;7394627;19;20152;-76
2023/04/17 00:26:15;;;;;;;11.97;8.87;;;11.00;99.90;;;;;;7392691;19;20639;-77
2023/04/17 00:28:42;;;;;;;14.50;9.90;;;11.00;99.90;;;;;;7394295;19;20259;-76
2023/04/17 00:31:07;;;;;;;13.73;9.87;;;11.00;99.90;;;;;;7395355;19;20158;-76
2023/04/17 00:33:33;;;;;;;12.57;9.50;;;11.00;99.90;;;;;;7392028;19;20149;-75
2023/04/17 00:35:59;;;;;;;12.13;9.07;;;11.00;99.90;;;;;;7392269;19;20546;-77
2023/04/17 00:38:25;;;;;;;13.20;9.13;;;11.00;99.90;;;;;;7388122;19;20230;-76
2023/04/17 00:40:51;;;;;;;14.57;8.83;;;11.00;99.90;;;;;;7390781;19;20166;-76
2023/04/17 00:43:17;;;;;;;12.20;9.13;;;11.00;99.90;;;;;;7393368;19;20150;-77
2023/04/17 00:45:45;;;;;;;13.23;9.03;;;11.00;99.90;;;;;;7389418;19;20211;-76
2023/04/17 00:48:12;;;;;;;12.23;9.00;;;11.00;99.90;;;;;;7391296;19;20126;-76
2023/04/17 00:50:38;;;;;;;13.27;9.43;;;11.00;99.90;;;;;;7391292;19;20138;-76
2023/04/17 00:53:05;;;;;;;13.63;10.07;;;11.00;99.90;;;;;;7390773;19;20150;-76
2023/04/17 00:55:33;;;;;;;12.20;9.40;;;11.20;99.90;;;;;;7390327;19;20146;-76
2023/04/17 00:58:01;;;;;;;14.47;9.93;;;11.00;99.90;;;;;;7392380;19;20150;-76
2023/04/17 01:00:27;;;;;;;13.87;9.77;;;11.00;99.90;;;;;;7395110;19;20222;-76
2023/04/17 01:02:56;;;;;;;14.80;10.00;;;11.00;99.90;;;;;;7391293;19;20139;-76
2023/04/17 01:05:21;;;;;;;13.50;9.93;;;11.00;99.90;;;;;;7391373;19;20135;-77
2023/04/17 01:07:47;;;;;;;14.30;9.63;;;11.00;99.90;;;;;;7393309;19;20172;-77
2023/04/17 01:10:13;;;;;;;13.70;9.80;;;11.00;99.90;;;;;;7391241;19;20618;-76
2023/04/17 01:12:40;;;;;;;12.37;9.67;;;11.00;99.90;;;;;;7390805;19;20521;-76
2023/04/17 01:15:06;;;;;;;14.40;9.73;;;11.00;99.90;;;;;;7389256;19;20134;-77
2023/04/17 01:17:31;;;;;;;12.77;9.33;;;11.00;99.90;;;;;;7392049;19;20700;-76
2023/04/17 01:20:10;;;;;;;14.53;10.13;;;11.20;99.90;;;;;;7393204;19;20127;-75
2023/04/17 01:22:36;;;;;;;14.57;9.80;;;11.00;99.90;;;;;;7393164;19;20138;-76
2023/04/17 01:25:03;;;;;;;12.03;9.23;;;11.00;99.90;;;;;;7390018;19;20147;-76
2023/04/17 01:27:29;;;;;;;13.20;9.23;;;11.10;99.90;;;;;;7393510;19;20138;-76
2023/04/17 01:29:55;;;;;;;13.73;10.07;;;11.00;99.90;;;;;;7393349;19;20136;-76
2023/04/17 01:32:22;;;;;;;12.97;9.27;;;11.10;99.90;;;;;;7390755;19;20624;-77
2023/04/17 01:34:47;;;;;;;13.97;9.23;;;11.00;99.90;;;;;;7385499;19;20162;-77
2023/04/17 01:37:13;;;;;;;12.17;8.57;;;11.00;99.90;;;;;;7393755;19;20567;-76
2023/04/17 01:39:39;;;;;;;11.53;9.00;;;11.00;99.90;;;;;;7388749;19;20302;-77
2023/04/17 01:42:05;;;;;;;12.53;9.23;;;11.00;99.90;;;;;;7387737;19;20157;-76
2023/04/17 01:44:31;;;;;;;11.93;9.43;;;11.10;99.90;;;;;;7386997;19;20131;-76
2023/04/17 01:46:58;;;;;;;14.73;9.93;;;11.10;99.90;;;;;;7392972;19;20135;-77
2023/04/17 01:49:25;;;;;;;13.93;9.87;;;11.10;99.90;;;;;;7390487;19;20170;-75
2023/04/17 01:51:50;;;;;;;14.93;9.53;;;11.00;99.90;;;;;;7388144;19;20154;-76
2023/04/17 01:54:16;;;;;;;13.10;8.93;;;11.00;99.90;;;;;;7389250;19;20131;-77
2023/04/17 01:56:42;;;;;;;12.83;9.20;;;11.00;99.90;;;;;;7390228;19;20147;-77
2023/04/17 01:59:08;;;;;;;13.00;8.60;;;11.00;99.90;;;;;;7389608;19;20154;-77
2023/04/17 02:01:35;;;;;;;10.90;8.77;;;11.00;99.90;;;;;;7390830;19;20146;-77
2023/04/17 02:04:01;;;;;;;14.47;9.40;;;11.00;99.90;;;;;;7389810;19;20168;-76
2023/04/17 02:06:27;;;;;;;13.47;9.87;;;11.10;99.90;;;;;;7392223;19;20134;-77
2023/04/17 02:08:53;;;;;;;13.77;9.47;;;11.00;99.90;;;;;;7389969;19;20478;-76
2023/04/17 02:11:19;;;;;;;12.37;9.90;;;11.00;99.90;;;;;;7388607;19;20166;-76
2023/04/17 02:13:45;;;;;;;13.70;9.63;;;11.00;99.90;;;;;;7389801;19;20142;-76
2023/04/17 02:16:11;;;;;;;13.47;9.77;;;11.00;99.90;;;;;;7390046;19;20477;-77
2023/04/17 02:18:38;;;;;;;13.00;9.37;;;11.00;99.90;;;;;;7391622;19;20566;-76
2023/04/17 02:21:04;;;;;;;14.27;9.20;;;11.00;99.90;;;;;;7389338;19;20206;-75
2023/04/17 02:23:38;;;;;;;13.83;9.43;;;10.90;99.90;;;;;;7390881;19;20183;-77
2023/04/17 02:26:04;;;;;;;14.67;10.53;;;10.90;99.90;;;;;;7390816;19;20201;-76
2023/04/17 02:28:30;;;;;;;13.40;10.27;;;10.80;99.90;;;;;;7389971;19;20659;-75
2023/04/17 02:30:56;;;;;;;13.97;9.57;;;10.80;99.90;;;;;;7388717;19;20139;-76
2023/04/17 02:33:22;;;;;;;13.03;9.40;;;10.80;99.90;;;;;;7387928;19;20162;-76
2023/04/17 02:35:48;;;;;;;13.70;9.70;;;10.80;99.90;;;;;;7385856;19;20160;-76
2023/04/17 02:38:13;;;;;;;12.83;9.67;;;10.90;99.90;;;;;;7388319;19;20225;-75
2023/04/17 02:40:39;;;;;;;16.40;10.27;;;10.90;99.90;;;;;;7388845;19;20151;-76
2023/04/17 02:43:05;;;;;;;14.53;9.90;;;10.80;99.90;;;;;;7388942;19;20595;-76
2023/04/17 02:45:31;;;;;;;13.10;10.03;;;10.90;99.90;;;;;;7387783;19;20555;-76
2023/04/17 02:47:56;;;;;;;13.37;9.73;;;10.80;99.90;;;;;;7389155;19;20134;-76
2023/04/17 02:50:22;;;;;;;14.90;10.83;;;10.90;99.90;;;;;;7388516;19;20155;-76
2023/04/17 02:52:48;;;;;;;13.27;10.07;;;10.80;99.90;;;;;;7389891;19;20135;-76
2023/04/17 02:55:14;;;;;;;14.50;10.30;;;10.80;99.90;;;;;;7389661;19;20135;-76
2023/04/17 02:57:39;;;;;;;13.20;9.67;;;10.80;99.90;;;;;;7391184;19;20146;-76
2023/04/17 03:00:13;;;;;;;15.73;10.53;;;10.80;99.90;;;;;;7388758;19;20154;-75
2023/04/17 03:02:39;;;;;;;13.47;9.60;;;10.80;99.90;;;;;;7387351;19;20138;-76
2023/04/17 03:05:05;;;;;;;13.27;9.77;;;10.90;99.90;;;;;;7390120;19;20217;-75
2023/04/17 03:07:32;;;;;;;15.23;10.70;;;10.90;99.90;;;;;;7386706;19;20146;-78
2023/04/17 03:09:58;;;;;;;14.20;9.63;;;11.00;99.90;;;;;;7389436;19;20134;-75
2023/04/17 03:12:24;;;;;;;11.60;9.03;;;10.90;99.90;;;;;;7388788;19;20138;-75
2023/04/17 03:14:50;;;;;;;16.67;10.47;;;10.90;99.90;;;;;;7388301;19;20134;-76
2023/04/17 03:17:17;;;;;;;14.03;9.67;;;10.90;99.90;;;;;;7388005;19;20150;-75
2023/04/17 03:19:42;;;;;;;13.80;10.03;;;10.90;99.90;;;;;;7390859;19;20671;-77
2023/04/17 03:22:08;;;;;;;12.67;9.70;;;10.90;99.90;;;;;;7387126;19;20147;-75
2023/04/17 03:24:34;;;;;;;14.63;9.93;;;10.90;99.90;;;;;;7389155;19;20879;-76
2023/04/17 03:27:01;;;;;;;13.40;9.53;;;10.70;99.90;;;;;;7384952;19;20141;-76
2023/04/17 03:29:27;;;;;;;13.00;9.97;;;10.80;99.90;;;;;;7387349;19;20147;-76
2023/04/17 03:31:53;;;;;;;13.53;10.70;;;10.90;99.90;;;;;;7385695;19;20146;-76
2023/04/17 03:34:20;;;;;;;13.83;9.63;;;10.90;99.90;;;;;;7388275;19;20154;-76
2023/04/17 03:36:46;;;;;;;14.20;9.77;;;10.90;99.90;;;;;;7387290;19;20164;-76
2023/04/17 03:39:12;;;;;;;14.07;9.90;;;10.90;99.90;;;;;;7387606;19;20464;-77
2023/04/17 03:41:38;;;;;;;13.67;9.60;;;10.80;99.90;;;;;;7386640;19;20181;-76
2023/04/17 03:44:04;;;;;;;13.63;10.00;;;10.80;99.90;;;;;;7387747;19;20174;-76
2023/04/17 03:46:30;;;;;;;17.33;10.73;;;10.80;99.90;;;;;;7388652;19;20155;-77
2023/04/17 03:48:56;;;;;;;16.23;11.10;;;10.90;99.90;;;;;;7387342;19;20135;-76
2023/04/17 03:51:22;;;;;;;13.23;10.30;;;10.90;99.90;;;;;;7384787;19;20131;-76
2023/04/17 03:53:52;;;;;;;15.10;10.57;;;10.90;99.90;;;;;;7389801;19;20671;-76
2023/04/17 03:56:18;;;;;;;14.00;9.80;;;10.80;99.90;;;;;;7385670;19;20135;-75
2023/04/17 03:58:45;;;;;;;14.60;9.97;;;10.80;99.90;;;;;;7387668;19;20777;-76
2023/04/17 04:01:11;;;;;;;13.97;10.37;;;10.80;99.90;;;;;;7386113;19;20601;-76
2023/04/17 04:03:38;;;;;;;13.27;10.00;;;10.80;99.90;;;;;;7386250;19;20146;-76
2023/04/17 04:06:06;;;;;;;16.20;10.37;;;10.80;99.90;;;;;;7387599;19;20962;-75
2023/04/17 04:08:32;;;;;;;14.47;10.23;;;10.80;99.90;;;;;;7387084;19;20149;-76
2023/04/17 04:10:59;;;;;;;14.63;10.40;;;10.80;99.90;;;;;;7385370;19;20486;-76
2023/04/17 04:13:25;;;;;;;15.00;9.97;;;10.80;99.90;;;;;;7388080;19;20495;-76
2023/04/17 04:15:51;;;;;;;14.07;10.33;;;10.80;99.90;;;;;;7387056;19;20139;-75
2023/04/17 04:18:18;;;;;;;14.63;10.33;;;10.80;99.90;;;;;;7387012;19;20604;-76
2023/04/17 04:20:44;;;;;;;13.87;10.13;;;10.80;99.90;;;;;;7387616;19;20139;-76
2023/04/17 04:23:11;;;;;;;12.20;8.93;;;10.80;99.90;;;;;;7387001;19;20138;-77
2023/04/17 04:25:40;;;;;;;13.23;9.47;;;10.80;99.90;;;;;;7387391;19;20138;-76
2023/04/17 04:28:06;;;;;;;16.73;11.03;;;10.80;99.90;;;;;;7385497;19;20135;-76
2023/04/17 04:30:37;;;;;;;14.80;9.80;;;10.70;99.90;;;;;;7385197;19;20154;-76
2023/04/17 04:33:07;;;;;;;14.20;9.67;;;10.80;99.90;;;;;;7384507;19;20146;-75
2023/04/17 04:35:33;;;;;;;15.70;10.93;;;10.80;99.90;;;;;;7383139;19;20571;-76
2023/04/17 04:38:01;;;;;;;16.07;9.63;;;10.80;99.90;;;;;;7384267;19;20130;-75
2023/04/17 04:40:34;;;;;;;13.17;10.20;;;10.70;99.90;;;;;;7384454;19;20630;-76
2023/04/17 04:43:00;;;;;;;13.13;9.67;;;10.80;99.90;;;;;;7386324;19;20142;-75
2023/04/17 04:45:26;;;;;;;14.83;9.93;;;10.80;99.90;;;;;;7386635;19;20134;-76
2023/04/17 04:47:52;;;;;;;19.67;10.10;;;10.70;99.90;;;;;;7390963;19;20130;-75
2023/04/17 04:50:18;;;;;;;12.83;9.37;;;10.80;99.90;;;;;;7394351;19;20504;-77
2023/04/17 04:52:44;;;;;;;15.13;11.03;;;10.70;99.90;;;;;;7394918;19;20222;-77
2023/04/17 04:55:11;;;;;;;13.70;10.00;;;10.70;99.90;;;;;;7390439;19;20155;-76
2023/04/17 04:57:37;;;;;;;13.40;10.20;;;10.80;99.90;;;;;;7392882;19;20564;-76
2023/04/17 05:00:07;;;;;;;13.73;10.63;;;10.80;99.90;;;;;;7391388;19;20217;-75
2023/04/17 05:02:33;;;;;;;14.70;10.23;;;10.80;99.90;;;;;;7393200;19;20595;-77
2023/04/17 05:04:59;;;;;;;15.47;10.47;;;10.90;99.90;;;;;;7391558;19;20144;-77
2023/04/17 05:07:24;;;;;;;18.33;10.27;;;10.80;99.90;;;;;;7392856;19;20554;-75
2023/04/17 05:09:50;;;;;;;15.83;11.07;;;10.80;99.90;;;;;;7391684;19;20142;-76
2023/04/17 05:12:16;;;;;;;15.37;10.07;;;10.80;99.90;;;;;;7390263;19;20159;-76
2023/04/17 05:14:41;;;;;;;14.57;10.00;;;10.80;99.90;;;;;;7390860;19;20135;-76
2023/04/17 05:17:07;;;;;;;15.30;10.90;;;10.70;99.90;;;;;;7390574;19;20626;-77
2023/04/17 05:19:36;;;;;;;14.07;10.07;;;10.70;99.90;;;;;;7392013;19;20131;-76
2023/04/17 05:22:01;;;;;;;15.83;10.60;;;10.70;99.90;;;;;;7389642;19;20135;-75
2023/04/17 05:24:27;;;;;;;14.43;10.13;;;10.70;99.90;;;;;;7390368;19;20904;-77
2023/04/17 05:26:53;;;;;;;15.50;9.97;;;10.70;99.90;;;;;;7389778;19;20126;-78
2023/04/17 05:29:18;;;;;;;17.00;10.23;;;10.70;99.90;;;;;;7391299;19;20163;-76
2023/04/17 05:31:44;;;;;;;12.40;9.13;;;10.80;99.90;;;;;;7388736;19;20149;-76
2023/04/17 05:34:10;;;;;;;13.53;9.87;;;10.80;99.90;;;;;;7389314;19;20170;-77
2023/04/17 05:36:36;;;;;;;12.97;9.70;;;10.80;99.90;;;;;;7388442;19;20162;-74
2023/04/17 05:39:02;;;;;;;13.33;9.87;;;10.80;99.90;;;;;;7387464;19;20131;-77
2023/04/17 05:41:29;;;;;;;13.50;9.30;;;11.00;99.90;;;;;;7388176;19;20174;-76
2023/04/17 05:43:55;;;;;;;16.07;10.23;;;10.90;99.90;;;;;;7389682;19;20135;-76
2023/04/17 05:46:21;;;;;;;12.70;9.40;;;10.90;99.90;;;;;;7390872;19;20170;-76
2023/04/17 05:48:46;;;;;;;12.37;9.20;;;10.90;99.90;;;;;;7393259;19;20151;-77
2023/04/17 05:51:12;;;;;;;13.07;10.13;;;10.90;99.90;;;;;;7388808;19;20134;-75
2023/04/17 05:53:38;;;;;;;16.00;10.30;;;10.80;99.90;;;;;;7389541;19;20509;-76
2023/04/17 05:56:04;;;;;;;13.10;9.17;;;10.80;99.90;;;;;;7392398;19;20139;-75
2023/04/17 05:58:30;;;;;;;14.73;9.27;;;10.80;99.90;;;;;;7379556;19;20595;-77
2023/04/17 06:00:56;;;;;;;13.60;9.67;;;10.80;99.90;;;;;;7391152;19;20142;-76
2023/04/17 06:03:22;;;;;;;14.87;9.63;;;10.80;99.90;;;;;;7390802;19;20147;-76
2023/04/17 06:05:48;;;;;;;16.03;9.70;;;10.80;99.90;;;;;;7388470;19;20150;-75
2023/04/17 06:08:13;;;;;;;13.40;10.27;;;10.80;99.90;;;;;;7388625;19;20138;-76
2023/04/17 06:10:39;;;;;;;15.23;9.73;;;10.80;99.90;;;;;;7389758;19;20462;-74
2023/04/17 06:13:05;;;;;;;12.27;9.50;;;10.90;99.90;;;;;;7390455;19;20131;-75
2023/04/17 06:15:32;;;;;;;13.73;9.43;;;10.80;99.90;;;;;;7389985;19;20643;-75
2023/04/17 06:17:58;;;;;;;11.20;8.87;;;10.90;99.90;;;;;;7389233;19;20588;-75
2023/04/17 06:20:23;;;;;;;13.03;9.60;;;10.80;99.90;;;;;;7391304;19;20138;-76
2023/04/17 06:22:49;;;;;;;15.40;11.33;;;10.80;99.90;;;;;;7389504;19;20145;-75
2023/04/17 06:25:15;;;;;;;13.27;9.80;;;10.80;99.90;;;;;;7388183;19;20150;-75
2023/04/17 06:27:41;;;;;;;13.57;9.73;;;10.70;99.90;;;;;;7389373;19;20171;-76
2023/04/17 06:30:07;;;;;;;13.80;9.97;;;10.70;99.90;;;;;;7389525;19;20225;-76
2023/04/17 06:32:33;;;;;;;14.40;9.67;;;10.70;99.90;;;;;;7389815;19;20139;-76
2023/04/17 06:34:58;;;;;;;14.17;10.13;;;10.70;99.90;;;;;;7389106;19;20139;-76
2023/04/17 06:37:24;;;;;;;19.70;9.37;;;10.80;99.90;;;;;;7387617;19;20135;-76
2023/04/17 06:39:50;;;;;;;15.33;8.97;;;10.90;99.90;;;;;;7388046;19;20683;-83
2023/04/17 06:42:16;;;;;;;16.60;10.47;;;10.80;99.90;;;;;;7390305;19;20963;-82
2023/04/17 06:44:45;;;;;;;16.53;10.07;;;10.80;99.90;;;;;;7392814;19;20142;-82
2023/04/17 06:47:11;;;;;;;15.80;9.20;;;10.90;99.90;;;;;;7391955;19;20163;-83
2023/04/17 06:49:37;;;;;;;12.33;8.33;;;10.90;99.90;;;;;;7392951;19;20749;-83
2023/04/17 06:52:03;;;;;;;12.97;8.93;;;10.90;99.90;;;;;;7392648;19;20143;-83
2023/04/17 06:54:29;;;;;;;13.37;8.97;;;10.90;99.90;;;;;;7393724;19;20604;-82
2023/04/17 06:56:55;;;;;;;15.83;9.90;;;10.90;99.90;;;;;;7390178;19;20154;-83
2023/04/17 06:59:21;;;;;;;12.87;9.40;;;10.80;99.90;;;;;;7387829;19;20174;-80
2023/04/17 07:01:47;;;;;;;13.80;8.73;;;10.80;99.90;;;;;;7391056;19;20247;-80
2023/04/17 07:04:13;;;;;;;16.83;9.73;;;11.00;99.90;;;;;;7386554;19;20166;-80
2023/04/17 07:06:39;;;;;;;14.67;9.40;;;10.80;99.90;;;;;;7393526;19;20754;-80
2023/04/17 07:09:04;;;;;;;14.83;9.70;;;10.80;99.90;;;;;;7390845;19;20518;-82
2023/04/17 07:11:30;;;;;;;13.07;9.57;;;10.80;99.90;;;;;;7388075;19;20155;-81
2023/04/17 07:13:56;;;;;;;13.60;9.73;;;10.90;99.90;;;;;;7389794;19;20210;-80
2023/04/17 07:16:22;;;;;;;12.50;8.97;;;11.00;99.90;;;;;;7392232;19;20599;-80
2023/04/17 07:18:51;;;;;;;14.63;8.93;;;10.90;99.90;;;;;;7389011;19;20621;-80
2023/04/17 07:21:17;;;;;;;12.97;8.97;;;10.90;99.90;;;;;;7390551;19;20162;-80
2023/04/17 07:23:43;;;;;;;11.77;8.77;;;10.90;99.90;;;;;;7387264;19;20171;-82
2023/04/17 07:26:10;;;;;;;12.70;8.77;;;11.00;99.90;;;;;;7388175;19;20138;-83
2023/04/17 07:28:37;;;;;;;13.70;8.77;;;10.90;99.90;;;;;;7388722;19;20150;-81
2023/04/17 07:31:06;;;;;;;12.80;9.00;;;10.90;99.90;;;;;;7389292;19;20143;-80
2023/04/17 07:33:32;;;;;;;12.40;8.37;;;10.90;99.90;;;;;;7388774;19;20146;-81
2023/04/17 07:35:58;;;;;;;12.20;8.27;;;11.00;99.90;;;;;;7385859;19;20168;-82
2023/04/17 07:38:24;;;;;;;11.60;8.37;;;11.00;99.90;;;;;;7387062;19;20134;-81
2023/04/17 07:40:50;;;;;;;12.00;8.77;;;11.00;99.90;;;;;;7386873;19;20480;-80
2023/04/17 07:43:17;;;;;;;12.23;9.10;;;11.00;99.90;;;;;;7389377;19;20134;-82
2023/04/17 07:45:42;;;;;;;10.70;8.53;;;11.00;99.90;;;;;;7391062;19;20765;-81
2023/04/17 07:48:08;;;;;;;12.10;8.93;;;11.00;99.90;;;;;;7388954;19;20159;-81
2023/04/17 07:50:34;;;;;;;10.00;7.80;;;11.00;99.90;;;;;;7391000;19;20150;-81
2023/04/17 07:53:00;;;;;;;11.00;8.13;;;11.10;99.90;;;;;;7387406;19;20166;-80
2023/04/17 07:55:26;;;;;;;10.23;7.50;;;11.10;99.90;;;;;;7387014;19;20138;-84
2023/04/17 07:57:53;;;;;;;12.27;8.00;;;11.10;99.90;;;;;;7387133;19;20152;-81
2023/04/17 08:00:20;;;;;;;13.40;7.90;;;11.10;99.90;;;;;;7385085;19;20170;-84
2023/04/17 08:02:47;;;;;;;11.67;7.83;;;11.10;99.90;;;;;;7388096;19;20194;-85
2023/04/17 08:05:13;;;;;;;11.87;7.67;;;11.10;99.90;;;;;;7388700;19;20176;-80
2023/04/17 08:07:40;;;;;;;9.67;7.60;;;11.00;99.90;;;;;;7388342;19;20928;-80
2023/04/17 08:10:06;;;;;;;11.70;8.10;;;11.00;99.90;;;;;;7393208;19;20134;-82
2023/04/17 08:12:32;;;;;;;11.83;7.97;;;11.00;99.90;;;;;;7388766;19;20138;-82
2023/04/17 08:14:58;;;;;;;10.10;7.40;;;11.00;99.90;;;;;;7386629;19;20163;-81
2023/04/17 08:17:28;;;;;;;10.63;7.20;;;11.10;99.90;;;;;;7388258;19;20217;-82
2023/04/17 08:19:57;;;;;;;10.07;6.83;;;11.10;99.90;;;;;;7386735;19;20516;-82
2023/04/17 08:22:27;;;;;;;9.77;7.23;;;11.10;99.90;;;;;;7393433;19;20254;-81
2023/04/17 08:24:56;;;;;;;10.50;7.10;;;11.20;99.90;;;;;;7394275;19;20142;-80
2023/04/17 08:27:24;;;;;;;8.70;7.07;;;11.20;99.90;;;;;;7393706;19;20158;-82
2023/04/17 08:29:54;;;;;;;10.30;7.20;;;11.30;99.90;;;;;;7396835;19;20223;-82
2023/04/17 08:32:20;;;;;;;10.70;7.30;;;11.30;99.90;;;;;;7394491;19;20138;-81
2023/04/17 08:34:46;;;;;;;9.30;6.60;;;11.30;99.90;;;;;;7394682;19;20610;-81
2023/04/17 08:37:12;;;;;;;8.13;6.57;;;11.30;99.90;;;;;;7395612;19;20142;-81
2023/04/17 08:39:38;;;;;;;10.03;7.37;;;11.30;99.90;;;;;;7392573;19;20539;-83
2023/04/17 08:42:11;;;;;;;11.20;7.17;;;11.30;99.90;;;;;;7391430;19;20741;-81
2023/04/17 08:44:37;;;;;;;10.73;7.13;;;11.30;99.90;;;;;;7394799;19;20586;-81
2023/04/17 08:47:04;;;;;;;10.00;7.30;;;11.30;99.90;;;;;;7392852;19;20139;-83
2023/04/17 08:49:34;;;;;;;9.13;6.83;;;11.40;99.90;;;;;;7394777;19;20164;-82
2023/04/17 08:52:04;;;;;;;10.70;7.17;;;11.50;99.90;;;;;;7389365;19;20659;-81
2023/04/17 08:54:34;;;;;;;9.97;6.87;;;11.50;99.90;;;;;;7394382;19;20162;-80
2023/04/17 08:57:04;;;;;;;8.73;6.67;;;11.40;99.90;;;;;;7393966;19;20629;-81
2023/04/17 08:59:36;;;;;;;9.77;6.20;;;11.70;99.90;;;;;;7391340;19;20143;-83
2023/04/17 09:02:04;;;;;;;9.03;6.50;;;11.60;99.90;;;;;;7395426;19;20139;-80
2023/04/17 09:04:44;;;;;;;9.13;6.67;;;11.60;99.90;;;;;;7392581;19;21433;-81
2023/04/17 09:07:11;;;;;;;9.57;6.33;;;11.60;99.90;;;;;;7391808;19;20145;-82
2023/04/17 09:09:54;;;;;;;9.47;6.40;;;11.60;99.90;;;;;;7394817;19;20130;-83
2023/04/17 09:12:22;;;;;;;8.97;6.37;;;11.70;99.90;;;;;;7390015;19;20229;-82
2023/04/17 09:14:48;;;;;;;9.70;6.00;;;11.80;99.90;;;;;;7392287;19;20153;-82
2023/04/17 09:17:19;;;;;;;9.97;5.83;;;11.70;99.90;;;;;;7394779;19;20143;-81
2023/04/17 09:20:06;;;;;;;9.83;6.33;;;11.70;99.90;;;;;;7395076;19;20164;-82
2023/04/17 09:22:33;;;;;;;7.60;5.57;;;11.80;99.90;;;;;;7392310;19;20157;-80
2023/04/17 09:24:59;;;;;;;7.47;5.60;;;11.80;99.90;;;;;;7392561;19;20142;-83
2023/04/17 09:27:28;;;;;;;7.67;5.57;;;11.80;99.90;;;;;;7391630;19;20150;-82
2023/04/17 09:30:00;;;;;;;7.13;5.30;;;11.80;99.90;;;;;;7391722;19;20231;-83
2023/04/17 09:32:30;;;;;;;7.07;5.37;;;11.80;99.90;;;;;;7392750;19;20194;-84
2023/04/17 09:34:58;;;;;;;6.73;5.40;;;11.70;99.90;;;;;;7393415;19;20142;-82
2023/04/17 09:37:47;;;;;;;7.03;5.93;;;11.80;99.90;;;;;;7396911;19;20149;-81
2023/04/17 09:40:14;;;;;;;6.73;5.33;;;11.90;99.90;;;;;;7391718;19;20165;-78
2023/04/17 09:43:15;;;;;;;11.40;6.73;;;12.00;99.90;;;;;;7390490;19;20157;-79
2023/04/17 09:45:43;;;;;;;8.47;5.57;;;12.10;99.90;;;;;;7388849;19;20605;-81
2023/04/17 09:48:12;;;;;;;6.07;4.93;;;12.10;99.90;;;;;;7393271;19;20122;-83
2023/04/17 09:50:38;;;;;;;7.07;5.20;;;12.10;99.90;;;;;;7393388;19;20138;-80
2023/04/17 09:53:05;;;;;;;6.37;4.73;;;12.10;99.90;;;;;;7394335;19;20492;-80
2023/04/17 09:55:32;;;;;;;7.27;5.50;;;12.00;99.90;;;;;;7390256;19;20149;-82
2023/04/17 09:58:03;;;;;;;9.77;5.47;;;12.00;99.90;;;;;;7390271;19;20456;-81
2023/04/17 10:00:31;;;;;;;6.93;4.80;;;12.00;99.90;;;;;;7393344;19;20142;-82
2023/04/17 10:02:58;;;;;;;7.27;4.87;;;12.10;99.90;;;;;;7386077;19;20156;-83
2023/04/17 10:05:29;;;;;;;6.67;4.87;;;12.10;99.90;;;;;;7390322;19;20146;-84
2023/04/17 10:07:58;;;;;;;6.37;4.73;;;12.10;99.90;;;;;;7399716;19;20135;-81
2023/04/17 10:10:25;;;;;;;5.97;4.70;;;12.10;99.90;;;;;;7394396;19;20131;-82
2023/04/17 10:12:54;;;;;;;7.53;5.30;;;12.10;99.90;;;;;;7395492;19;20135;-82
2023/04/17 10:15:22;;;;;;;6.30;4.77;;;12.20;99.90;;;;;;7390687;19;20146;-81
2023/04/17 10:17:48;;;;;;;7.17;5.13;;;12.30;99.90;;;;;;7390201;19;20122;-82
2023/04/17 10:20:27;;;;;;;5.63;4.43;;;12.30;99.90;;;;;;7394090;19;21204;-84
2023/04/17 10:22:53;;;;;;;6.27;4.70;;;12.40;99.90;;;;;;7392944;19;20145;-82
2023/04/17 10:25:26;;;;;;;6.13;3.97;;;12.40;99.90;;;;;;7391568;19;20214;-83
2023/04/17 10:27:59;;;;;;;5.30;4.20;;;12.40;99.90;;;;;;7397403;19;20233;-82
2023/04/17 10:30:52;;;;;;;5.60;4.33;;;12.40;99.90;;;;;;7396557;19;20209;-83
2023/04/17 10:33:23;;;;;;;5.67;3.93;;;12.40;99.90;;;;;;7389041;19;21499;-80
2023/04/17 10:35:52;;;;;;;7.97;5.43;;;12.40;99.90;;;;;;7397150;19;20147;-82
2023/04/17 10:38:34;;;;;;;4.33;3.60;;;12.40;99.90;;;;;;7399969;19;20583;-83
2023/04/17 10:41:03;;;;;;;4.83;3.80;;;12.40;99.90;;;;;;7389225;19;20147;-81
2023/04/17 10:43:29;;;;;;;5.80;4.47;;;12.40;99.90;;;;;;7396190;19;20750;-83
2023/04/17 10:46:01;;;;;;;4.37;3.30;;;12.50;99.90;;;;;;7390260;19;20217;-83
2023/04/17 10:48:34;;;;;;;5.30;4.20;;;12.50;99.90;;;;;;7396637;19;20245;-83
2023/04/17 10:51:19;;;;;;;4.20;3.40;;;12.60;99.90;;;;;;7390017;19;20147;-82
2023/04/17 10:53:45;;;;;;;4.60;3.30;;;12.70;99.90;;;;;;7401148;19;20163;-83
2023/04/17 10:56:32;;;;;;;3.87;3.30;;;12.80;99.90;;;;;;7393582;19;20130;-83
2023/04/17 10:59:07;;;;;;;3.50;2.83;;;12.90;99.90;;;;;;7390518;19;20146;-81
2023/04/17 11:01:40;;;;;;;3.30;2.63;;;13.00;99.90;;;;;;7393834;19;20694;-82
2023/04/17 11:04:07;;;;;;;2.87;2.40;;;12.90;99.90;;;;;;7396128;19;20130;-81
2023/04/17 11:06:38;;;;;;;3.75;3.13;;;12.80;99.90;;;;;;7391651;19;20146;-80
2023/04/17 11:09:10;;;;;;;2.83;2.50;;;12.80;99.90;;;;;;7390563;19;20131;-81
2023/04/17 11:11:43;;;;;;;3.43;2.83;;;13.00;99.90;;;;;;7391382;19;20142;-81
2023/04/17 11:14:16;;;;;;;3.73;2.43;;;13.20;99.90;;;;;;7386916;19;20130;-80
2023/04/17 11:16:44;;;;;;;3.77;2.80;;;13.30;99.90;;;;;;7389228;19;20151;-81
2023/04/17 11:19:23;;;;;;;3.30;2.60;;;13.60;99.90;;;;;;7388013;19;20599;-81
2023/04/17 11:21:51;;;;;;;2.93;2.60;;;13.40;99.90;;;;;;7389298;19;20133;-81
2023/04/17 11:24:28;;;;;;;4.33;3.00;;;13.40;99.90;;;;;;7387244;19;20158;-82
2023/04/17 11:26:58;;;;;;;4.13;2.93;;;13.50;99.90;;;;;;7381465;19;20138;-82
2023/04/17 11:29:25;;;;;;;3.30;3.00;;;13.80;99.90;;;;;;7389186;19;20460;-82
2023/04/17 11:31:52;;;;;;;4.20;3.00;;;13.90;99.90;;;;;;7386104;19;20153;-81
2023/04/17 11:34:19;;;;;;;4.07;3.47;;;14.00;99.90;;;;;;7386351;19;20126;-83
2023/04/17 11:36:56;;;;;;;4.00;3.13;;;14.00;99.90;;;;;;7384500;19;21130;-82
2023/04/17 11:39:24;;;;;;;4.00;3.40;;;14.10;99.90;;;;;;7386875;19;20158;-82
2023/04/17 11:41:51;;;;;;;5.20;3.23;;;14.20;99.90;;;;;;7389030;19;20166;-84
2023/04/17 11:44:19;;;;;;;3.60;3.10;;;14.20;99.90;;;;;;7390427;19;20210;-84
2023/04/17 11:46:53;;;;;;;4.15;3.42;;;14.00;99.90;;;;;;7387837;19;20676;-84
2023/04/17 11:49:31;;;;;;;3.47;3.00;;;14.30;99.90;;;;;;7387187;19;20281;-86
2023/04/17 11:52:00;;;;;;;3.77;3.10;;;14.10;99.90;;;;;;7388283;19;20145;-84
2023/04/17 11:54:30;;;;;;;4.33;3.37;;;13.90;99.90;;;;;;7389882;19;20150;-84
2023/04/17 11:57:01;;;;;;;3.57;3.00;;;13.80;99.90;;;;;;7395885;19;20153;-84
2023/04/17 11:59:31;;;;;;;4.68;3.88;;;13.80;99.90;;;;;;7402334;19;20167;-83
2023/04/17 12:01:59;;;;;;;5.40;3.17;;;13.70;99.90;;;;;;7400629;19;20158;-82
2023/04/17 12:04:27;;;;;;;4.60;3.40;;;13.60;99.90;;;;;;7405954;19;20134;-81
2023/04/17 12:06:54;;;;;;;4.43;3.53;;;13.60;99.90;;;;;;7406188;19;20177;-82
2023/04/17 12:09:22;;;;;;;7.07;3.73;;;13.40;99.90;;;;;;7402626;19;20242;-82
2023/04/17 12:11:49;;;;;;;3.77;3.20;;;13.40;99.90;;;;;;7402087;19;20210;-82
2023/04/17 12:14:16;;;;;;;3.80;2.97;;;13.40;99.90;;;;;;7400446;19;20623;-82
2023/04/17 12:16:43;;;;;;;3.50;2.93;;;13.30;99.90;;;;;;7400417;19;20174;-83
2023/04/17 12:19:12;;;;;;;3.37;3.00;;;13.20;99.90;;;;;;7400812;19;20151;-82
2023/04/17 12:21:37;;;;;;;4.83;2.90;;;13.30;99.90;;;;;;7402121;19;20575;-86
2023/04/17 12:24:03;;;;;;;3.33;3.03;;;13.30;99.90;;;;;;7401359;19;20135;-81
2023/04/17 12:26:30;;;;;;;4.57;3.47;;;13.30;99.90;;;;;;7399818;19;20152;-83
2023/04/17 12:28:56;;;;;;;4.73;2.93;;;13.30;99.90;;;;;;7403117;19;20142;-83
2023/04/17 12:31:22;;;;;;;4.60;3.67;;;13.30;99.90;;;;;;7398402;19;20142;-84
2023/04/17 12:33:48;;;;;;;4.03;3.43;;;13.20;99.90;;;;;;7401660;19;20149;-86
2023/04/17 12:36:13;;;;;;;5.07;3.20;;;13.20;99.90;;;;;;7397750;19;20218;-85
2023/04/17 12:38:41;;;;;;;3.33;3.03;;;13.10;99.90;;;;;;7402727;19;20142;-86
2023/04/17 12:41:07;;;;;;;4.27;3.20;;;13.20;99.90;;;;;;7399526;19;20153;-83